Time,TemperatureF,DewpointF,PressureIn,WindDirection,WindDirectionDegrees,WindSpeedMPH,WindSpeedGustMPH,Humidity,HourlyPrecipIn,Conditions,Clouds,dailyrainin,SoftwareType,DateUTC
2013-06-06 00:27:00,48.6,47.0,29.95,WNW,294,6.0,6.0,94,0.00,,,0.00,Wunderground v.1.15,2013-06-06 07:27:00,
2013-06-06 00:57:00,48.4,47.0,29.95,NW,310,6.0,6.0,95,0.00,,,0.00,Wunderground v.1.15,2013-06-06 07:57:00,
2013-06-06 01:28:00,48.3,46.9,29.94,NW,311,5.0,5.0,95,0.00,,,0.00,Wunderground v.1.15,2013-06-06 08:28:00,
2013-06-06 01:57:00,48.1,46.7,29.94,NW,308,7.0,7.0,95,0.00,,,0.00,Wunderground v.1.15,2013-06-06 08:57:00,
2013-06-06 02:27:00,48.1,47.0,29.94,NW,316,6.0,6.0,96,0.00,,,0.00,Wunderground v.1.15,2013-06-06 09:27:00,
2013-06-06 02:58:00,48.1,47.0,29.93,WNW,294,5.0,5.0,96,0.00,,,0.00,Wunderground v.1.15,2013-06-06 09:58:00,
2013-06-06 03:28:00,48.0,46.9,29.93,WNW,285,5.0,6.0,96,0.00,,,0.00,Wunderground v.1.15,2013-06-06 10:28:00,
2013-06-06 03:57:00,48.1,47.0,29.93,NW,317,4.0,6.0,96,0.00,,,0.00,Wunderground v.1.15,2013-06-06 10:57:00,
2013-06-06 04:27:00,47.9,46.8,29.92,NW,309,4.0,4.0,96,0.00,,,0.00,Wunderground v.1.15,2013-06-06 11:27:00,
2013-06-06 04:58:00,47.8,46.7,29.93,NW,308,5.0,5.0,96,0.00,,,0.00,Wunderground v.1.15,2013-06-06 11:58:00,
2013-06-06 05:27:00,47.9,47.1,29.93,NW,306,2.0,5.0,97,0.00,,,0.00,Wunderground v.1.15,2013-06-06 12:27:00,
2013-06-06 05:57:00,48.0,47.2,29.94,North,350,2.0,2.0,97,0.00,,,0.00,Wunderground v.1.15,2013-06-06 12:57:00,
2013-06-06 06:27:00,48.2,47.4,29.94,WNW,300,2.0,2.0,97,0.00,,,0.00,Wunderground v.1.15,2013-06-06 13:27:00,
2013-06-06 06:57:00,48.0,47.2,29.94,WNW,288,2.0,6.0,97,0.00,,,0.00,Wunderground v.1.15,2013-06-06 13:57:00,
2013-06-06 07:27:00,48.2,47.1,29.94,WNW,300,2.0,2.0,96,0.00,,,0.00,Wunderground v.1.15,2013-06-06 14:27:00,
2013-06-06 07:57:00,48.9,47.5,29.95,WNW,291,2.0,2.0,95,0.00,,,0.00,Wunderground v.1.15,2013-06-06 14:57:00,
2013-06-06 08:27:00,49.9,48.0,29.95,WNW,295,4.0,4.0,93,0.00,,,0.00,Wunderground v.1.15,2013-06-06 15:27:00,
2013-06-06 08:57:00,50.9,48.1,29.96,WNW,292,4.0,4.0,90,0.00,,,0.00,Wunderground v.1.15,2013-06-06 15:57:00,
2013-06-06 09:27:00,52.1,49.3,29.95,WNW,288,4.0,6.0,90,0.00,,,0.00,Wunderground v.1.15,2013-06-06 16:27:00,
2013-06-06 09:57:00,54.8,50.4,29.95,West,259,3.0,3.0,85,0.00,,,0.00,Wunderground v.1.15,2013-06-06 16:57:00,
2013-06-06 10:27:00,58.5,52.0,29.94,West,267,2.0,4.0,79,0.00,,,0.00,Wunderground v.1.15,2013-06-06 17:27:00,
2013-06-06 10:57:00,61.5,52.8,29.93,SW,231,2.0,2.0,73,0.00,,,0.00,Wunderground v.1.15,2013-06-06 17:57:00,
2013-06-06 11:28:00,64.6,53.4,29.93,West,279,2.0,2.0,67,0.00,,,0.00,Wunderground v.1.15,2013-06-06 18:28:00,
2013-06-06 11:57:00,67.1,54.5,29.92,WSW,257,2.0,2.0,64,0.00,,,0.00,Wunderground v.1.15,2013-06-06 18:57:00,
2013-06-06 12:27:00,68.7,54.7,29.91,WNW,300,5.0,8.0,61,0.00,,,0.00,Wunderground v.1.15,2013-06-06 19:27:00,
2013-06-06 12:57:00,70.6,56.0,29.90,NW,305,7.0,9.0,60,0.00,,,0.00,Wunderground v.1.15,2013-06-06 19:57:00,
2013-06-06 13:27:00,71.8,56.2,29.89,NW,319,7.0,7.0,58,0.00,,,0.00,Wunderground v.1.15,2013-06-06 20:27:00,
2013-06-06 13:58:00,73.9,57.2,29.89,WNW,295,7.0,7.0,56,0.00,,,0.00,Wunderground v.1.15,2013-06-06 20:58:00,
2013-06-06 14:27:00,74.2,56.5,29.88,WNW,286,8.0,11.0,54,0.00,,,0.00,Wunderground v.1.15,2013-06-06 21:27:00,
2013-06-06 14:57:00,73.3,56.2,29.87,West,280,11.0,12.0,55,0.00,,,0.00,Wunderground v.1.15,2013-06-06 21:57:00,
2013-06-06 15:27:00,72.1,55.5,29.86,WNW,300,11.0,11.0,56,0.00,,,0.00,Wunderground v.1.15,2013-06-06 22:27:00,
2013-06-06 15:57:00,71.1,55.1,29.85,NW,323,10.0,10.0,57,0.00,,,0.00,Wunderground v.1.15,2013-06-06 22:57:00,
2013-06-06 16:27:00,69.1,54.2,29.85,WNW,284,10.0,18.0,59,0.00,,,0.00,Wunderground v.1.15,2013-06-06 23:27:00,
2013-06-06 16:57:00,68.0,54.0,29.85,WNW,289,10.0,10.0,61,0.00,,,0.00,Wunderground v.1.15,2013-06-06 23:57:00,
2013-06-06 17:28:00,67.6,53.7,29.85,WNW,294,7.0,10.0,61,0.00,,,0.00,Wunderground v.1.15,2013-06-07 00:28:00,
2013-06-06 17:57:00,65.6,52.7,29.85,NW,319,7.0,9.0,63,0.00,,,0.00,Wunderground v.1.15,2013-06-07 00:57:00,
2013-06-06 18:27:00,60.9,51.0,29.85,WNW,296,10.0,10.0,70,0.00,,,0.00,Wunderground v.1.15,2013-06-07 01:27:00,
2013-06-06 18:57:00,56.9,49.8,29.85,West,267,9.0,9.0,77,0.00,,,0.00,Wunderground v.1.15,2013-06-07 01:57:00,
2013-06-06 19:28:00,54.5,49.1,29.85,WNW,290,7.0,7.0,82,0.00,,,0.00,Wunderground v.1.15,2013-06-07 02:28:00,
2013-06-06 19:57:00,52.1,48.3,29.86,West,277,6.0,6.0,87,0.00,,,0.00,Wunderground v.1.15,2013-06-07 02:57:00,
2013-06-06 20:27:00,50.5,47.7,29.86,NW,307,9.0,9.0,90,0.00,,,0.00,Wunderground v.1.15,2013-06-07 03:27:00,
2013-06-06 20:57:00,50.0,47.8,29.86,NW,319,4.0,4.0,92,0.00,,,0.00,Wunderground v.1.15,2013-06-07 03:57:00,
2013-06-06 21:28:00,49.8,47.9,29.87,NW,321,5.0,5.0,93,0.00,,,0.00,Wunderground v.1.15,2013-06-07 04:28:00,
2013-06-06 21:57:00,49.8,47.9,29.88,WNW,288,5.0,6.0,93,0.00,,,0.00,Wunderground v.1.15,2013-06-07 04:57:00,
2013-06-06 22:28:00,49.7,47.8,29.89,WNW,296,2.0,4.0,93,0.00,,,0.00,Wunderground v.1.15,2013-06-07 05:28:00,
2013-06-06 22:57:00,49.5,47.8,29.89,WNW,295,2.0,2.0,94,0.00,,,0.00,Wunderground v.1.15,2013-06-07 05:57:00,
2013-06-06 23:27:00,49.2,47.5,29.88,WNW,300,4.0,4.0,94,0.00,,,0.00,Wunderground v.1.15,2013-06-07 06:27:00,
2013-06-06 23:57:00,49.1,47.4,29.88,NW,315,4.0,4.0,94,0.00,,,0.00,Wunderground v.1.15,2013-06-07 06:57:00,